Portada
METAR-TAF:

METAR-TAF

Aeropuertos :

Múrmansk, Rusia

latitud: 68-58N, longitud: 033-03E, altitud: 51 m

Observación

El informe se hizo hace 38 minutos, a las 19:30 UTC
Viento 6 kt del sur-sureste
Temperatura 20°C
Humedad 49%
Presión 1015 hPa
Visibilidad 10 km o más
sin nubes por debajo de 1500 m y sin presencia de cumulonimbus.

METAR: ULMM 231930Z 16003MPS CAVOK 20/09 Q1015 R13/090070 NOSIG RMK QFE754

Hora: 23:08 (20:08 UTC)

Pronóstico

El informe se hizo hace 3 horas y 17 minutos, a las 16:51 UTC
Pronóstico válido del 23 a las 18 UTC al 24 a las 18 UTC
Viento 6 kt del sur-suroeste
Visibilidad 10 km o más
sin nubes por debajo de 1500 m y sin presencia de cumulonimbus.

TAF: ULMM 231651Z 2318/2418 20003MPS CAVOK

Observaciones y pronósticos meteorológicos de más de 4000 aeropuertos (mensajes METAR y TAF).

Los puntos amarillos y rojos representan las estaciones disponibles.

Ponga el ratón en el punto deseado para ver el nombre de la estación.

Haga clic para ver las observaciones y los pronósticos meteorológicos.

Para cambiar el mapa : haga clic en los botones verdes con una cruz de color negro para hacer un zoom, en el botón verde con un guión para alejar o en las flechas verdes para mapas adyacentes.


METAR-TAF: